sensor_id;sensor_type;location;lat;lon;timestamp;P1;durP1;ratioP1;P2;durP2;ratioP2
11935;SDS011;6027;48.576;9.180;2023-06-10T00:02:06;16.05;;;14.68;;
11935;SDS011;6027;48.576;9.180;2023-06-10T00:04:33;14.45;;;13.27;;
11935;SDS011;6027;48.576;9.180;2023-06-10T00:06:58;16.52;;;15.32;;
11935;SDS011;6027;48.576;9.180;2023-06-10T00:09:24;14.40;;;13.45;;
11935;SDS011;6027;48.576;9.180;2023-06-10T00:11:50;16.55;;;15.27;;
11935;SDS011;6027;48.576;9.180;2023-06-10T00:14:16;16.35;;;15.15;;
11935;SDS011;6027;48.576;9.180;2023-06-10T00:16:41;14.82;;;13.73;;
11935;SDS011;6027;48.576;9.180;2023-06-10T00:19:10;16.00;;;15.00;;
11935;SDS011;6027;48.576;9.180;2023-06-10T00:21:39;14.70;;;13.60;;
11935;SDS011;6027;48.576;9.180;2023-06-10T00:24:08;16.77;;;15.57;;
11935;SDS011;6027;48.576;9.180;2023-06-10T00:26:40;15.63;;;14.63;;
11935;SDS011;6027;48.576;9.180;2023-06-10T00:29:06;14.75;;;13.75;;
11935;SDS011;6027;48.576;9.180;2023-06-10T00:31:33;15.60;;;14.60;;
11935;SDS011;6027;48.576;9.180;2023-06-10T00:34:00;15.45;;;14.13;;
11935;SDS011;6027;48.576;9.180;2023-06-10T00:36:25;15.38;;;14.27;;
11935;SDS011;6027;48.576;9.180;2023-06-10T00:38:51;15.68;;;14.57;;
11935;SDS011;6027;48.576;9.180;2023-06-10T00:41:17;14.77;;;13.68;;
11935;SDS011;6027;48.576;9.180;2023-06-10T00:43:43;15.70;;;14.38;;
11935;SDS011;6027;48.576;9.180;2023-06-10T00:46:08;15.23;;;14.13;;
11935;SDS011;6027;48.576;9.180;2023-06-10T00:48:34;16.08;;;14.98;;
11935;SDS011;6027;48.576;9.180;2023-06-10T00:51:00;15.20;;;14.20;;
11935;SDS011;6027;48.576;9.180;2023-06-10T00:53:26;15.55;;;14.45;;
11935;SDS011;6027;48.576;9.180;2023-06-10T00:55:53;16.60;;;15.40;;
11935;SDS011;6027;48.576;9.180;2023-06-10T00:58:18;16.73;;;15.43;;
11935;SDS011;6027;48.576;9.180;2023-06-10T01:00:44;15.00;;;14.00;;
11935;SDS011;6027;48.576;9.180;2023-06-10T01:03:10;14.65;;;13.45;;
11935;SDS011;6027;48.576;9.180;2023-06-10T01:05:39;16.33;;;15.13;;
11935;SDS011;6027;48.576;9.180;2023-06-10T01:08:12;17.75;;;16.35;;
11935;SDS011;6027;48.576;9.180;2023-06-10T01:10:55;16.35;;;14.95;;
11935;SDS011;6027;48.576;9.180;2023-06-10T01:13:25;15.32;;;14.23;;
11935;SDS011;6027;48.576;9.180;2023-06-10T01:15:54;17.40;;;16.15;;
11935;SDS011;6027;48.576;9.180;2023-06-10T01:18:21;15.88;;;14.77;;
11935;SDS011;6027;48.576;9.180;2023-06-10T01:20:47;16.20;;;15.07;;
11935;SDS011;6027;48.576;9.180;2023-06-10T01:23:13;16.75;;;15.65;;
11935;SDS011;6027;48.576;9.180;2023-06-10T01:25:41;15.23;;;14.10;;
11935;SDS011;6027;48.576;9.180;2023-06-10T01:30:45;16.27;;;15.18;;
11935;SDS011;6027;48.576;9.180;2023-06-10T01:33:21;15.50;;;14.20;;
11935;SDS011;6027;48.576;9.180;2023-06-10T01:35:52;16.25;;;15.15;;
11935;SDS011;6027;48.576;9.180;2023-06-10T01:38:19;17.92;;;16.73;;
11935;SDS011;6027;48.576;9.180;2023-06-10T01:40:45;15.77;;;14.68;;
11935;SDS011;6027;48.576;9.180;2023-06-10T01:43:12;16.55;;;15.45;;
11935;SDS011;6027;48.576;9.180;2023-06-10T01:45:38;15.88;;;14.77;;
11935;SDS011;6027;48.576;9.180;2023-06-10T01:48:03;16.58;;;15.27;;
11935;SDS011;6027;48.576;9.180;2023-06-10T01:50:29;15.75;;;14.63;;
11935;SDS011;6027;48.576;9.180;2023-06-10T01:52:56;14.93;;;13.98;;
11935;SDS011;6027;48.576;9.180;2023-06-10T01:55:23;15.77;;;14.75;;
11935;SDS011;6027;48.576;9.180;2023-06-10T01:57:48;16.33;;;15.13;;
11935;SDS011;6027;48.576;9.180;2023-06-10T02:00:14;14.43;;;13.38;;
11935;SDS011;6027;48.576;9.180;2023-06-10T02:02:40;16.23;;;15.13;;
11935;SDS011;6027;48.576;9.180;2023-06-10T02:05:06;15.95;;;14.75;;
11935;SDS011;6027;48.576;9.180;2023-06-10T02:07:32;15.15;;;14.07;;
11935;SDS011;6027;48.576;9.180;2023-06-10T02:09:57;14.80;;;13.70;;
11935;SDS011;6027;48.576;9.180;2023-06-10T02:12:22;16.73;;;15.45;;
11935;SDS011;6027;48.576;9.180;2023-06-10T02:14:48;14.77;;;13.77;;
11935;SDS011;6027;48.576;9.180;2023-06-10T02:17:13;16.38;;;15.27;;
11935;SDS011;6027;48.576;9.180;2023-06-10T02:19:39;16.23;;;15.13;;
11935;SDS011;6027;48.576;9.180;2023-06-10T02:22:08;16.70;;;15.40;;
11935;SDS011;6027;48.576;9.180;2023-06-10T02:24:35;15.75;;;14.65;;
11935;SDS011;6027;48.576;9.180;2023-06-10T02:27:02;15.27;;;14.07;;
11935;SDS011;6027;48.576;9.180;2023-06-10T02:29:28;14.27;;;13.30;;
11935;SDS011;6027;48.576;9.180;2023-06-10T02:31:54;14.88;;;13.88;;
11935;SDS011;6027;48.576;9.180;2023-06-10T02:34:19;17.35;;;16.10;;
11935;SDS011;6027;48.576;9.180;2023-06-10T02:36:44;15.75;;;14.45;;
11935;SDS011;6027;48.576;9.180;2023-06-10T02:39:10;14.88;;;13.90;;
11935;SDS011;6027;48.576;9.180;2023-06-10T02:41:35;15.63;;;14.63;;
11935;SDS011;6027;48.576;9.180;2023-06-10T02:44:01;17.25;;;16.05;;
11935;SDS011;6027;48.576;9.180;2023-06-10T02:46:26;15.80;;;14.63;;
11935;SDS011;6027;48.576;9.180;2023-06-10T02:48:53;16.88;;;15.48;;
11935;SDS011;6027;48.576;9.180;2023-06-10T02:51:19;15.60;;;14.57;;
11935;SDS011;6027;48.576;9.180;2023-06-10T02:53:45;16.33;;;14.95;;
11935;SDS011;6027;48.576;9.180;2023-06-10T02:56:11;16.42;;;15.05;;
11935;SDS011;6027;48.576;9.180;2023-06-10T02:58:37;16.63;;;15.43;;
11935;SDS011;6027;48.576;9.180;2023-06-10T03:01:03;16.60;;;15.38;;
11935;SDS011;6027;48.576;9.180;2023-06-10T03:03:48;16.52;;;15.30;;
11935;SDS011;6027;48.576;9.180;2023-06-10T03:06:15;14.63;;;13.63;;
11935;SDS011;6027;48.576;9.180;2023-06-10T03:08:41;15.90;;;14.82;;
11935;SDS011;6027;48.576;9.180;2023-06-10T03:11:07;15.68;;;14.55;;
11935;SDS011;6027;48.576;9.180;2023-06-10T03:13:32;16.83;;;15.73;;
11935;SDS011;6027;48.576;9.180;2023-06-10T03:15:58;14.55;;;13.52;;
11935;SDS011;6027;48.576;9.180;2023-06-10T03:18:27;15.70;;;14.73;;
11935;SDS011;6027;48.576;9.180;2023-06-10T03:20:53;14.15;;;13.13;;
11935;SDS011;6027;48.576;9.180;2023-06-10T03:23:18;15.38;;;14.40;;
11935;SDS011;6027;48.576;9.180;2023-06-10T03:25:44;15.35;;;14.13;;
11935;SDS011;6027;48.576;9.180;2023-06-10T03:28:10;16.30;;;15.07;;
11935;SDS011;6027;48.576;9.180;2023-06-10T03:30:36;15.07;;;13.80;;
11935;SDS011;6027;48.576;9.180;2023-06-10T03:33:01;13.43;;;12.40;;
11935;SDS011;6027;48.576;9.180;2023-06-10T03:35:26;12.77;;;11.90;;
11935;SDS011;6027;48.576;9.180;2023-06-10T03:37:52;14.52;;;13.43;;
11935;SDS011;6027;48.576;9.180;2023-06-10T03:40:17;15.15;;;13.93;;
11935;SDS011;6027;48.576;9.180;2023-06-10T03:42:43;14.10;;;12.93;;
11935;SDS011;6027;48.576;9.180;2023-06-10T03:45:09;16.02;;;14.88;;
11935;SDS011;6027;48.576;9.180;2023-06-10T03:47:35;15.85;;;14.80;;
11935;SDS011;6027;48.576;9.180;2023-06-10T03:50:04;15.95;;;14.73;;
11935;SDS011;6027;48.576;9.180;2023-06-10T03:52:30;15.60;;;14.50;;
11935;SDS011;6027;48.576;9.180;2023-06-10T03:54:56;14.77;;;13.77;;
11935;SDS011;6027;48.576;9.180;2023-06-10T03:57:21;15.40;;;14.10;;
11935;SDS011;6027;48.576;9.180;2023-06-10T03:59:47;14.27;;;13.25;;
11935;SDS011;6027;48.576;9.180;2023-06-10T04:02:12;15.50;;;14.40;;
11935;SDS011;6027;48.576;9.180;2023-06-10T04:04:37;16.55;;;15.35;;
11935;SDS011;6027;48.576;9.180;2023-06-10T04:07:03;15.15;;;13.85;;
11935;SDS011;6027;48.576;9.180;2023-06-10T04:09:31;15.73;;;14.52;;
11935;SDS011;6027;48.576;9.180;2023-06-10T04:11:56;14.02;;;13.02;;
11935;SDS011;6027;48.576;9.180;2023-06-10T04:14:22;16.25;;;15.15;;
11935;SDS011;6027;48.576;9.180;2023-06-10T04:16:47;14.50;;;13.50;;
11935;SDS011;6027;48.576;9.180;2023-06-10T04:19:13;14.52;;;13.23;;
11935;SDS011;6027;48.576;9.180;2023-06-10T04:21:38;16.45;;;15.35;;
11935;SDS011;6027;48.576;9.180;2023-06-10T04:24:04;16.02;;;14.77;;
11935;SDS011;6027;48.576;9.180;2023-06-10T04:26:29;15.77;;;14.65;;
11935;SDS011;6027;48.576;9.180;2023-06-10T04:28:55;16.25;;;15.07;;
11935;SDS011;6027;48.576;9.180;2023-06-10T04:31:20;15.60;;;14.50;;
11935;SDS011;6027;48.576;9.180;2023-06-10T04:33:46;15.32;;;14.27;;
11935;SDS011;6027;48.576;9.180;2023-06-10T04:36:11;14.73;;;13.75;;
11935;SDS011;6027;48.576;9.180;2023-06-10T04:38:36;14.95;;;13.60;;
11935;SDS011;6027;48.576;9.180;2023-06-10T04:41:02;16.23;;;15.13;;
11935;SDS011;6027;48.576;9.180;2023-06-10T04:43:29;16.05;;;14.90;;
11935;SDS011;6027;48.576;9.180;2023-06-10T04:45:55;15.63;;;14.35;;
11935;SDS011;6027;48.576;9.180;2023-06-10T04:48:21;15.65;;;14.60;;
11935;SDS011;6027;48.576;9.180;2023-06-10T04:50:46;15.30;;;14.20;;
11935;SDS011;6027;48.576;9.180;2023-06-10T04:53:11;16.20;;;14.95;;
11935;SDS011;6027;48.576;9.180;2023-06-10T04:55:37;14.23;;;13.13;;
11935;SDS011;6027;48.576;9.180;2023-06-10T04:58:02;14.35;;;13.40;;
11935;SDS011;6027;48.576;9.180;2023-06-10T05:00:28;14.35;;;13.43;;
11935;SDS011;6027;48.576;9.180;2023-06-10T05:02:53;13.27;;;12.27;;
11935;SDS011;6027;48.576;9.180;2023-06-10T05:05:19;17.23;;;15.95;;
11935;SDS011;6027;48.576;9.180;2023-06-10T05:07:44;14.98;;;13.88;;
11935;SDS011;6027;48.576;9.180;2023-06-10T05:10:10;16.83;;;15.68;;
11935;SDS011;6027;48.576;9.180;2023-06-10T05:12:37;15.00;;;13.93;;
11935;SDS011;6027;48.576;9.180;2023-06-10T05:15:04;15.52;;;14.48;;
11935;SDS011;6027;48.576;9.180;2023-06-10T05:17:31;15.00;;;13.80;;
11935;SDS011;6027;48.576;9.180;2023-06-10T05:19:56;16.00;;;14.80;;
11935;SDS011;6027;48.576;9.180;2023-06-10T05:22:22;17.05;;;15.55;;
11935;SDS011;6027;48.576;9.180;2023-06-10T05:24:49;13.75;;;12.85;;
11935;SDS011;6027;48.576;9.180;2023-06-10T05:27:16;16.17;;;15.02;;
11935;SDS011;6027;48.576;9.180;2023-06-10T05:29:41;16.88;;;15.68;;
11935;SDS011;6027;48.576;9.180;2023-06-10T05:32:07;16.83;;;15.52;;
11935;SDS011;6027;48.576;9.180;2023-06-10T05:34:33;18.85;;;17.55;;
11935;SDS011;6027;48.576;9.180;2023-06-10T05:36:59;16.63;;;15.32;;
11935;SDS011;6027;48.576;9.180;2023-06-10T05:39:24;16.92;;;15.80;;
11935;SDS011;6027;48.576;9.180;2023-06-10T05:41:50;15.13;;;14.13;;
11935;SDS011;6027;48.576;9.180;2023-06-10T05:44:15;15.60;;;14.43;;
11935;SDS011;6027;48.576;9.180;2023-06-10T05:46:41;15.38;;;14.27;;
11935;SDS011;6027;48.576;9.180;2023-06-10T05:49:06;16.58;;;15.48;;
11935;SDS011;6027;48.576;9.180;2023-06-10T05:51:32;19.60;;;18.17;;
11935;SDS011;6027;48.576;9.180;2023-06-10T05:53:57;17.20;;;15.98;;
11935;SDS011;6027;48.576;9.180;2023-06-10T05:56:22;15.90;;;14.57;;
11935;SDS011;6027;48.576;9.180;2023-06-10T05:58:48;15.90;;;14.80;;
11935;SDS011;6027;48.576;9.180;2023-06-10T06:01:14;15.27;;;14.27;;
11935;SDS011;6027;48.576;9.180;2023-06-10T06:03:39;15.55;;;14.55;;
11935;SDS011;6027;48.576;9.180;2023-06-10T06:06:05;16.75;;;15.68;;
11935;SDS011;6027;48.576;9.180;2023-06-10T06:08:30;15.20;;;14.20;;
11935;SDS011;6027;48.576;9.180;2023-06-10T06:10:56;16.33;;;15.32;;
11935;SDS011;6027;48.576;9.180;2023-06-10T06:13:21;15.75;;;14.65;;
11935;SDS011;6027;48.576;9.180;2023-06-10T06:15:46;14.65;;;13.73;;
11935;SDS011;6027;48.576;9.180;2023-06-10T06:18:12;16.52;;;15.27;;
11935;SDS011;6027;48.576;9.180;2023-06-10T06:20:37;16.27;;;15.18;;
11935;SDS011;6027;48.576;9.180;2023-06-10T06:23:03;15.10;;;14.02;;
11935;SDS011;6027;48.576;9.180;2023-06-10T06:25:28;15.68;;;14.57;;
11935;SDS011;6027;48.576;9.180;2023-06-10T06:27:54;16.85;;;15.65;;
11935;SDS011;6027;48.576;9.180;2023-06-10T06:30:19;16.50;;;15.30;;
11935;SDS011;6027;48.576;9.180;2023-06-10T06:32:45;17.52;;;16.33;;
11935;SDS011;6027;48.576;9.180;2023-06-10T06:35:10;17.42;;;16.13;;
11935;SDS011;6027;48.576;9.180;2023-06-10T06:37:36;18.33;;;17.02;;
11935;SDS011;6027;48.576;9.180;2023-06-10T06:40:02;19.17;;;17.92;;
11935;SDS011;6027;48.576;9.180;2023-06-10T06:42:28;17.25;;;15.93;;
11935;SDS011;6027;48.576;9.180;2023-06-10T06:44:54;18.05;;;16.55;;
11935;SDS011;6027;48.576;9.180;2023-06-10T06:47:19;18.48;;;17.27;;
11935;SDS011;6027;48.576;9.180;2023-06-10T06:49:48;18.23;;;17.02;;
11935;SDS011;6027;48.576;9.180;2023-06-10T06:52:14;16.95;;;15.80;;
11935;SDS011;6027;48.576;9.180;2023-06-10T06:54:40;18.48;;;17.27;;
11935;SDS011;6027;48.576;9.180;2023-06-10T06:57:05;20.20;;;18.90;;
11935;SDS011;6027;48.576;9.180;2023-06-10T06:59:32;19.60;;;18.30;;
11935;SDS011;6027;48.576;9.180;2023-06-10T07:01:58;21.02;;;19.60;;
11935;SDS011;6027;48.576;9.180;2023-06-10T07:04:23;17.75;;;16.35;;
11935;SDS011;6027;48.576;9.180;2023-06-10T07:06:49;18.80;;;17.20;;
11935;SDS011;6027;48.576;9.180;2023-06-10T07:09:14;18.63;;;17.27;;
11935;SDS011;6027;48.576;9.180;2023-06-10T07:11:40;17.65;;;16.45;;
11935;SDS011;6027;48.576;9.180;2023-06-10T07:14:06;18.75;;;17.35;;
11935;SDS011;6027;48.576;9.180;2023-06-10T07:16:31;19.38;;;18.08;;
11935;SDS011;6027;48.576;9.180;2023-06-10T07:18:57;17.17;;;15.98;;
11935;SDS011;6027;48.576;9.180;2023-06-10T07:21:22;20.00;;;18.70;;
11935;SDS011;6027;48.576;9.180;2023-06-10T07:23:48;20.42;;;18.80;;
11935;SDS011;6027;48.576;9.180;2023-06-10T07:26:14;19.05;;;17.75;;
11935;SDS011;6027;48.576;9.180;2023-06-10T07:28:40;17.13;;;16.02;;
11935;SDS011;6027;48.576;9.180;2023-06-10T07:31:06;17.60;;;16.30;;
11935;SDS011;6027;48.576;9.180;2023-06-10T07:33:32;18.33;;;17.13;;
11935;SDS011;6027;48.576;9.180;2023-06-10T07:35:57;18.27;;;17.08;;
11935;SDS011;6027;48.576;9.180;2023-06-10T07:38:23;19.17;;;17.77;;
11935;SDS011;6027;48.576;9.180;2023-06-10T07:40:50;20.23;;;18.92;;
11935;SDS011;6027;48.576;9.180;2023-06-10T07:43:16;19.30;;;18.00;;
11935;SDS011;6027;48.576;9.180;2023-06-10T07:45:41;18.42;;;16.92;;
11935;SDS011;6027;48.576;9.180;2023-06-10T07:48:07;20.42;;;18.85;;
11935;SDS011;6027;48.576;9.180;2023-06-10T07:50:33;19.05;;;17.75;;
11935;SDS011;6027;48.576;9.180;2023-06-10T07:52:58;19.30;;;18.00;;
11935;SDS011;6027;48.576;9.180;2023-06-10T07:55:24;17.65;;;16.55;;
11935;SDS011;6027;48.576;9.180;2023-06-10T07:57:51;18.50;;;17.30;;
11935;SDS011;6027;48.576;9.180;2023-06-10T08:00:18;18.80;;;17.60;;
11935;SDS011;6027;48.576;9.180;2023-06-10T08:02:44;18.73;;;17.52;;
11935;SDS011;6027;48.576;9.180;2023-06-10T08:05:09;19.17;;;17.77;;
11935;SDS011;6027;48.576;9.180;2023-06-10T08:07:35;16.27;;;15.25;;
11935;SDS011;6027;48.576;9.180;2023-06-10T08:10:01;17.70;;;16.58;;
11935;SDS011;6027;48.576;9.180;2023-06-10T08:12:27;18.52;;;17.27;;
11935;SDS011;6027;48.576;9.180;2023-06-10T08:14:56;18.58;;;17.38;;
11935;SDS011;6027;48.576;9.180;2023-06-10T08:17:21;18.10;;;16.95;;
11935;SDS011;6027;48.576;9.180;2023-06-10T08:19:47;18.75;;;17.55;;
11935;SDS011;6027;48.576;9.180;2023-06-10T08:22:13;18.33;;;17.15;;
11935;SDS011;6027;48.576;9.180;2023-06-10T08:24:39;17.20;;;15.90;;
11935;SDS011;6027;48.576;9.180;2023-06-10T08:27:05;18.15;;;16.85;;
11935;SDS011;6027;48.576;9.180;2023-06-10T08:29:31;16.65;;;15.55;;
11935;SDS011;6027;48.576;9.180;2023-06-10T08:31:57;17.80;;;16.38;;
11935;SDS011;6027;48.576;9.180;2023-06-10T08:34:22;18.67;;;17.38;;
11935;SDS011;6027;48.576;9.180;2023-06-10T08:36:48;16.40;;;15.30;;
11935;SDS011;6027;48.576;9.180;2023-06-10T08:39:18;15.65;;;14.65;;
11935;SDS011;6027;48.576;9.180;2023-06-10T08:41:45;16.70;;;15.60;;
11935;SDS011;6027;48.576;9.180;2023-06-10T08:44:30;15.18;;;14.18;;
11935;SDS011;6027;48.576;9.180;2023-06-10T08:46:58;17.20;;;16.08;;
11935;SDS011;6027;48.576;9.180;2023-06-10T08:49:25;16.83;;;15.73;;
11935;SDS011;6027;48.576;9.180;2023-06-10T08:51:53;16.60;;;15.50;;
11935;SDS011;6027;48.576;9.180;2023-06-10T08:54:28;17.73;;;16.42;;
11935;SDS011;6027;48.576;9.180;2023-06-10T08:56:57;15.25;;;14.25;;
11935;SDS011;6027;48.576;9.180;2023-06-10T08:59:25;16.95;;;15.75;;
11935;SDS011;6027;48.576;9.180;2023-06-10T09:01:51;15.98;;;14.77;;
11935;SDS011;6027;48.576;9.180;2023-06-10T09:04:18;15.95;;;14.93;;
11935;SDS011;6027;48.576;9.180;2023-06-10T09:06:44;17.00;;;15.93;;
11935;SDS011;6027;48.576;9.180;2023-06-10T09:09:11;17.42;;;16.02;;
11935;SDS011;6027;48.576;9.180;2023-06-10T09:11:38;15.15;;;14.05;;
11935;SDS011;6027;48.576;9.180;2023-06-10T09:14:06;17.60;;;16.40;;
11935;SDS011;6027;48.576;9.180;2023-06-10T09:16:32;17.10;;;16.00;;
11935;SDS011;6027;48.576;9.180;2023-06-10T09:18:57;14.82;;;13.82;;
11935;SDS011;6027;48.576;9.180;2023-06-10T09:21:24;16.85;;;15.75;;
11935;SDS011;6027;48.576;9.180;2023-06-10T09:23:50;15.73;;;14.73;;
11935;SDS011;6027;48.576;9.180;2023-06-10T09:26:16;16.63;;;15.32;;
11935;SDS011;6027;48.576;9.180;2023-06-10T09:28:48;16.50;;;15.40;;
11935;SDS011;6027;48.576;9.180;2023-06-10T09:31:15;16.35;;;15.25;;
11935;SDS011;6027;48.576;9.180;2023-06-10T09:33:44;17.83;;;16.70;;
11935;SDS011;6027;48.576;9.180;2023-06-10T09:36:10;14.40;;;13.50;;
11935;SDS011;6027;48.576;9.180;2023-06-10T09:38:35;15.55;;;14.60;;
11935;SDS011;6027;48.576;9.180;2023-06-10T09:41:02;16.30;;;15.07;;
11935;SDS011;6027;48.576;9.180;2023-06-10T09:43:38;17.35;;;16.25;;
11935;SDS011;6027;48.576;9.180;2023-06-10T09:46:05;16.33;;;15.23;;
11935;SDS011;6027;48.576;9.180;2023-06-10T09:48:34;15.25;;;14.25;;
11935;SDS011;6027;48.576;9.180;2023-06-10T09:51:00;18.02;;;16.83;;
11935;SDS011;6027;48.576;9.180;2023-06-10T09:53:25;14.43;;;13.40;;
11935;SDS011;6027;48.576;9.180;2023-06-10T09:55:51;16.75;;;15.65;;
11935;SDS011;6027;48.576;9.180;2023-06-10T09:58:17;15.15;;;14.15;;
11935;SDS011;6027;48.576;9.180;2023-06-10T10:00:42;15.13;;;14.13;;
11935;SDS011;6027;48.576;9.180;2023-06-10T10:03:07;15.48;;;14.43;;
11935;SDS011;6027;48.576;9.180;2023-06-10T10:05:33;15.45;;;14.45;;
11935;SDS011;6027;48.576;9.180;2023-06-10T10:07:58;16.95;;;15.63;;
11935;SDS011;6027;48.576;9.180;2023-06-10T10:10:24;17.92;;;16.58;;
11935;SDS011;6027;48.576;9.180;2023-06-10T10:12:56;15.10;;;14.00;;
11935;SDS011;6027;48.576;9.180;2023-06-10T10:15:23;16.13;;;14.82;;
11935;SDS011;6027;48.576;9.180;2023-06-10T10:18:06;15.50;;;14.50;;
11935;SDS011;6027;48.576;9.180;2023-06-10T10:20:34;15.27;;;14.25;;
11935;SDS011;6027;48.576;9.180;2023-06-10T10:23:11;15.93;;;14.88;;
11935;SDS011;6027;48.576;9.180;2023-06-10T10:25:43;15.57;;;14.57;;
11935;SDS011;6027;48.576;9.180;2023-06-10T10:28:12;15.77;;;14.77;;
11935;SDS011;6027;48.576;9.180;2023-06-10T10:33:19;16.33;;;15.32;;
11935;SDS011;6027;48.576;9.180;2023-06-10T10:35:48;15.40;;;14.38;;
11935;SDS011;6027;48.576;9.180;2023-06-10T10:38:14;13.80;;;12.75;;
11935;SDS011;6027;48.576;9.180;2023-06-10T10:40:40;14.13;;;13.27;;
11935;SDS011;6027;48.576;9.180;2023-06-10T10:43:07;15.15;;;14.23;;
11935;SDS011;6027;48.576;9.180;2023-06-10T10:45:33;16.60;;;15.50;;
11935;SDS011;6027;48.576;9.180;2023-06-10T10:48:04;15.85;;;14.80;;
11935;SDS011;6027;48.576;9.180;2023-06-10T10:50:34;14.70;;;13.52;;
11935;SDS011;6027;48.576;9.180;2023-06-10T10:53:00;16.10;;;15.10;;
11935;SDS011;6027;48.576;9.180;2023-06-10T10:55:27;14.85;;;13.85;;
11935;SDS011;6027;48.576;9.180;2023-06-10T10:57:57;14.52;;;13.52;;
11935;SDS011;6027;48.576;9.180;2023-06-10T11:02:58;14.45;;;13.55;;
11935;SDS011;6027;48.576;9.180;2023-06-10T11:05:47;14.05;;;12.95;;
11935;SDS011;6027;48.576;9.180;2023-06-10T11:08:15;16.80;;;15.50;;
11935;SDS011;6027;48.576;9.180;2023-06-10T11:11:02;14.70;;;13.80;;
11935;SDS011;6027;48.576;9.180;2023-06-10T11:13:43;15.40;;;14.25;;
11935;SDS011;6027;48.576;9.180;2023-06-10T11:16:23;15.18;;;13.68;;
11935;SDS011;6027;48.576;9.180;2023-06-10T11:18:53;15.57;;;14.57;;
11935;SDS011;6027;48.576;9.180;2023-06-10T11:21:20;16.50;;;15.40;;
11935;SDS011;6027;48.576;9.180;2023-06-10T11:23:45;14.45;;;13.50;;
11935;SDS011;6027;48.576;9.180;2023-06-10T11:33:56;14.38;;;13.48;;
11935;SDS011;6027;48.576;9.180;2023-06-10T11:36:22;13.90;;;13.05;;
11935;SDS011;6027;48.576;9.180;2023-06-10T11:38:50;15.05;;;14.13;;
11935;SDS011;6027;48.576;9.180;2023-06-10T11:41:18;13.50;;;12.70;;
11935;SDS011;6027;48.576;9.180;2023-06-10T11:43:44;14.82;;;13.93;;
11935;SDS011;6027;48.576;9.180;2023-06-10T11:46:11;15.45;;;14.45;;
11935;SDS011;6027;48.576;9.180;2023-06-10T11:48:37;15.43;;;14.43;;
11935;SDS011;6027;48.576;9.180;2023-06-10T11:51:06;13.85;;;12.95;;
11935;SDS011;6027;48.576;9.180;2023-06-10T11:53:33;13.45;;;12.43;;
11935;SDS011;6027;48.576;9.180;2023-06-10T11:55:58;14.43;;;13.32;;
11935;SDS011;6027;48.576;9.180;2023-06-10T11:58:24;15.20;;;14.23;;
11935;SDS011;6027;48.576;9.180;2023-06-10T12:00:54;14.23;;;13.23;;
11935;SDS011;6027;48.576;9.180;2023-06-10T12:03:24;14.50;;;13.50;;
11935;SDS011;6027;48.576;9.180;2023-06-10T12:08:26;13.85;;;12.95;;
11935;SDS011;6027;48.576;9.180;2023-06-10T12:10:55;14.35;;;13.23;;
11935;SDS011;6027;48.576;9.180;2023-06-10T12:13:22;13.73;;;12.88;;
11935;SDS011;6027;48.576;9.180;2023-06-10T12:15:49;13.75;;;12.95;;
11935;SDS011;6027;48.576;9.180;2023-06-10T12:18:21;14.25;;;13.05;;
11935;SDS011;6027;48.576;9.180;2023-06-10T12:20:48;14.45;;;13.52;;
11935;SDS011;6027;48.576;9.180;2023-06-10T12:23:15;13.05;;;12.27;;
11935;SDS011;6027;48.576;9.180;2023-06-10T12:25:54;12.98;;;12.18;;
11935;SDS011;6027;48.576;9.180;2023-06-10T12:28:21;14.00;;;13.20;;
11935;SDS011;6027;48.576;9.180;2023-06-10T12:30:48;11.65;;;10.95;;
11935;SDS011;6027;48.576;9.180;2023-06-10T12:33:20;15.38;;;14.48;;
11935;SDS011;6027;48.576;9.180;2023-06-10T12:35:47;13.23;;;12.43;;
11935;SDS011;6027;48.576;9.180;2023-06-10T12:38:23;11.65;;;10.95;;
11935;SDS011;6027;48.576;9.180;2023-06-10T12:40:52;13.43;;;12.48;;
11935;SDS011;6027;48.576;9.180;2023-06-10T12:43:35;13.98;;;12.82;;
11935;SDS011;6027;48.576;9.180;2023-06-10T12:46:10;14.38;;;13.48;;
11935;SDS011;6027;48.576;9.180;2023-06-10T12:48:36;11.43;;;10.70;;
11935;SDS011;6027;48.576;9.180;2023-06-10T12:51:14;12.50;;;11.73;;
11935;SDS011;6027;48.576;9.180;2023-06-10T12:53:40;12.70;;;11.98;;
11935;SDS011;6027;48.576;9.180;2023-06-10T12:56:05;12.73;;;11.73;;
11935;SDS011;6027;48.576;9.180;2023-06-10T12:58:31;12.88;;;11.88;;
11935;SDS011;6027;48.576;9.180;2023-06-10T13:00:56;12.45;;;11.65;;
11935;SDS011;6027;48.576;9.180;2023-06-10T13:03:21;13.95;;;13.02;;
11935;SDS011;6027;48.576;9.180;2023-06-10T13:05:47;13.38;;;12.38;;
11935;SDS011;6027;48.576;9.180;2023-06-10T13:08:13;11.70;;;11.00;;
11935;SDS011;6027;48.576;9.180;2023-06-10T13:10:38;12.65;;;11.88;;
11935;SDS011;6027;48.576;9.180;2023-06-10T13:13:04;11.85;;;11.15;;
11935;SDS011;6027;48.576;9.180;2023-06-10T13:15:33;12.57;;;11.85;;
11935;SDS011;6027;48.576;9.180;2023-06-10T13:18:02;14.32;;;13.07;;
11935;SDS011;6027;48.576;9.180;2023-06-10T13:20:28;13.48;;;12.68;;
11935;SDS011;6027;48.576;9.180;2023-06-10T13:22:54;11.95;;;11.25;;
11935;SDS011;6027;48.576;9.180;2023-06-10T13:25:20;12.35;;;11.55;;
11935;SDS011;6027;48.576;9.180;2023-06-10T13:27:45;11.88;;;11.07;;
11935;SDS011;6027;48.576;9.180;2023-06-10T13:30:11;12.60;;;11.80;;
11935;SDS011;6027;48.576;9.180;2023-06-10T13:32:36;12.88;;;12.10;;
11935;SDS011;6027;48.576;9.180;2023-06-10T13:35:02;11.57;;;10.85;;
11935;SDS011;6027;48.576;9.180;2023-06-10T13:37:28;12.32;;;11.48;;
11935;SDS011;6027;48.576;9.180;2023-06-10T13:39:54;11.80;;;11.02;;
11935;SDS011;6027;48.576;9.180;2023-06-10T13:42:20;11.85;;;10.90;;
11935;SDS011;6027;48.576;9.180;2023-06-10T13:44:46;12.20;;;11.50;;
11935;SDS011;6027;48.576;9.180;2023-06-10T13:47:16;12.38;;;11.65;;
11935;SDS011;6027;48.576;9.180;2023-06-10T13:49:42;11.80;;;11.00;;
11935;SDS011;6027;48.576;9.180;2023-06-10T13:52:07;11.38;;;10.45;;
11935;SDS011;6027;48.576;9.180;2023-06-10T13:54:33;14.45;;;13.50;;
11935;SDS011;6027;48.576;9.180;2023-06-10T13:57:01;13.45;;;12.52;;
11935;SDS011;6027;48.576;9.180;2023-06-10T13:59:27;12.07;;;11.35;;
11935;SDS011;6027;48.576;9.180;2023-06-10T14:01:52;11.90;;;11.10;;
11935;SDS011;6027;48.576;9.180;2023-06-10T14:04:18;12.23;;;11.52;;
11935;SDS011;6027;48.576;9.180;2023-06-10T14:06:43;12.07;;;11.18;;
11935;SDS011;6027;48.576;9.180;2023-06-10T14:09:10;11.27;;;10.68;;
11935;SDS011;6027;48.576;9.180;2023-06-10T14:11:35;11.90;;;11.18;;
11935;SDS011;6027;48.576;9.180;2023-06-10T14:14:01;13.13;;;12.32;;
11935;SDS011;6027;48.576;9.180;2023-06-10T14:16:26;10.07;;;9.48;;
11935;SDS011;6027;48.576;9.180;2023-06-10T14:18:52;12.15;;;11.45;;
11935;SDS011;6027;48.576;9.180;2023-06-10T14:21:17;11.48;;;10.75;;
11935;SDS011;6027;48.576;9.180;2023-06-10T14:23:43;13.55;;;12.68;;
11935;SDS011;6027;48.576;9.180;2023-06-10T14:26:08;11.77;;;11.00;;
11935;SDS011;6027;48.576;9.180;2023-06-10T14:28:34;12.30;;;11.40;;
11935;SDS011;6027;48.576;9.180;2023-06-10T14:31:00;11.73;;;11.02;;
11935;SDS011;6027;48.576;9.180;2023-06-10T14:33:25;11.70;;;11.00;;
11935;SDS011;6027;48.576;9.180;2023-06-10T14:35:51;11.98;;;11.18;;
11935;SDS011;6027;48.576;9.180;2023-06-10T14:38:16;12.48;;;11.63;;
11935;SDS011;6027;48.576;9.180;2023-06-10T14:40:42;11.93;;;11.23;;
11935;SDS011;6027;48.576;9.180;2023-06-10T14:43:07;12.95;;;12.05;;
11935;SDS011;6027;48.576;9.180;2023-06-10T14:45:36;11.02;;;10.27;;
11935;SDS011;6027;48.576;9.180;2023-06-10T14:48:02;10.48;;;9.82;;
11935;SDS011;6027;48.576;9.180;2023-06-10T14:50:29;12.88;;;12.07;;
11935;SDS011;6027;48.576;9.180;2023-06-10T14:52:54;12.32;;;11.52;;